sensor_id;sensor_type;location;lat;lon;timestamp;pressure;altitude;pressure_sealevel;temperature;humidity
11041;BME280;5573;49.592;8.662;2022-09-02T00:02:04;99944.41;;;16.88;100.00
11041;BME280;5573;49.592;8.662;2022-09-02T00:04:34;99938.53;;;16.82;100.00
11041;BME280;5573;49.592;8.662;2022-09-02T00:07:02;99930.25;;;16.78;100.00
11041;BME280;5573;49.592;8.662;2022-09-02T00:09:29;99933.84;;;16.75;100.00
11041;BME280;5573;49.592;8.662;2022-09-02T00:11:57;99928.34;;;16.72;100.00
11041;BME280;5573;49.592;8.662;2022-09-02T00:18:32;99929.69;;;16.63;100.00
11041;BME280;5573;49.592;8.662;2022-09-02T00:21:02;99924.56;;;16.62;100.00
11041;BME280;5573;49.592;8.662;2022-09-02T00:23:30;99929.25;;;16.65;100.00
11041;BME280;5573;49.592;8.662;2022-09-02T00:25:57;99930.56;;;16.57;100.00
11041;BME280;5573;49.592;8.662;2022-09-02T00:28:25;99919.81;;;16.59;100.00
11041;BME280;5573;49.592;8.662;2022-09-02T00:30:53;99921.84;;;16.55;100.00
11041;BME280;5573;49.592;8.662;2022-09-02T00:33:21;99921.50;;;16.53;100.00
11041;BME280;5573;49.592;8.662;2022-09-02T00:35:50;99914.00;;;16.50;100.00
11041;BME280;5573;49.592;8.662;2022-09-02T00:38:18;99909.69;;;16.49;100.00
11041;BME280;5573;49.592;8.662;2022-09-02T00:40:47;99912.38;;;16.52;100.00
11041;BME280;5573;49.592;8.662;2022-09-02T00:43:22;99902.59;;;16.44;100.00
11041;BME280;5573;49.592;8.662;2022-09-02T00:45:50;99903.31;;;16.48;100.00
11041;BME280;5573;49.592;8.662;2022-09-02T00:48:19;99912.03;;;16.50;99.95
11041;BME280;5573;49.592;8.662;2022-09-02T00:50:47;99908.88;;;16.48;99.55
11041;BME280;5573;49.592;8.662;2022-09-02T00:53:17;99916.78;;;16.50;99.21
11041;BME280;5573;49.592;8.662;2022-09-02T00:55:48;99904.53;;;16.47;100.00
11041;BME280;5573;49.592;8.662;2022-09-02T00:58:19;99912.09;;;16.46;99.60
11041;BME280;5573;49.592;8.662;2022-09-02T01:00:50;99910.53;;;16.42;97.84
11041;BME280;5573;49.592;8.662;2022-09-02T01:03:25;99896.66;;;16.42;98.48
11041;BME280;5573;49.592;8.662;2022-09-02T01:05:54;99906.63;;;16.39;98.77
11041;BME280;5573;49.592;8.662;2022-09-02T01:08:27;99907.03;;;16.38;97.58
11041;BME280;5573;49.592;8.662;2022-09-02T01:10:55;99903.47;;;16.37;100.00
11041;BME280;5573;49.592;8.662;2022-09-02T01:13:26;99897.31;;;16.26;100.00
11041;BME280;5573;49.592;8.662;2022-09-02T01:15:57;99896.91;;;16.28;97.28
11041;BME280;5573;49.592;8.662;2022-09-02T01:18:29;99890.88;;;16.33;96.92
11041;BME280;5573;49.592;8.662;2022-09-02T01:20:58;99901.63;;;16.27;98.32
11041;BME280;5573;49.592;8.662;2022-09-02T01:23:29;99888.56;;;16.28;96.54
11041;BME280;5573;49.592;8.662;2022-09-02T01:26:01;99885.69;;;16.35;96.26
11041;BME280;5573;49.592;8.662;2022-09-02T01:28:29;99893.22;;;16.34;96.11
11041;BME280;5573;49.592;8.662;2022-09-02T01:30:59;99897.88;;;16.41;95.13
11041;BME280;5573;49.592;8.662;2022-09-02T01:33:27;99892.88;;;16.32;96.86
11041;BME280;5573;49.592;8.662;2022-09-02T01:35:57;99892.56;;;16.23;97.67
11041;BME280;5573;49.592;8.662;2022-09-02T01:38:25;99896.47;;;16.29;95.62
11041;BME280;5573;49.592;8.662;2022-09-02T01:40:54;99888.63;;;16.24;96.60
11041;BME280;5573;49.592;8.662;2022-09-02T01:43:25;99885.09;;;16.20;97.06
11041;BME280;5573;49.592;8.662;2022-09-02T01:45:56;99888.31;;;16.15;96.54
11041;BME280;5573;49.592;8.662;2022-09-02T01:48:27;99887.41;;;16.25;93.96
11041;BME280;5573;49.592;8.662;2022-09-02T01:50:56;99897.72;;;16.24;94.94
11041;BME280;5573;49.592;8.662;2022-09-02T01:53:25;99894.16;;;16.24;94.61
11041;BME280;5573;49.592;8.662;2022-09-02T01:55:55;99893.38;;;16.23;94.54
11041;BME280;5573;49.592;8.662;2022-09-02T01:58:23;99885.47;;;16.22;94.88
11041;BME280;5573;49.592;8.662;2022-09-02T02:00:51;99895.78;;;16.21;93.49
11041;BME280;5573;49.592;8.662;2022-09-02T02:03:19;99892.50;;;16.30;93.15
11041;BME280;5573;49.592;8.662;2022-09-02T02:05:48;99885.06;;;16.23;92.58
11041;BME280;5573;49.592;8.662;2022-09-02T02:08:18;99888.66;;;16.20;94.51
11041;BME280;5573;49.592;8.662;2022-09-02T02:10:46;99885.63;;;16.11;95.27
11041;BME280;5573;49.592;8.662;2022-09-02T02:13:15;99884.88;;;16.07;93.22
11041;BME280;5573;49.592;8.662;2022-09-02T02:15:43;99887.66;;;16.07;93.54
11041;BME280;5573;49.592;8.662;2022-09-02T02:18:11;99884.16;;;16.03;96.26
11041;BME280;5573;49.592;8.662;2022-09-02T02:20:39;99885.34;;;16.02;94.11
11041;BME280;5573;49.592;8.662;2022-09-02T02:23:10;99886.97;;;15.99;95.25
11041;BME280;5573;49.592;8.662;2022-09-02T02:25:38;99889.78;;;15.96;93.88
11041;BME280;5573;49.592;8.662;2022-09-02T02:28:07;99881.81;;;15.98;94.03
11041;BME280;5573;49.592;8.662;2022-09-02T02:30:37;99883.38;;;16.02;93.48
11041;BME280;5573;49.592;8.662;2022-09-02T02:33:07;99885.78;;;16.00;94.34
11041;BME280;5573;49.592;8.662;2022-09-02T02:35:35;99887.00;;;15.96;94.39
11041;BME280;5573;49.592;8.662;2022-09-02T02:38:04;99879.94;;;15.91;93.66
11041;BME280;5573;49.592;8.662;2022-09-02T02:40:31;99884.22;;;15.96;92.84
11041;BME280;5573;49.592;8.662;2022-09-02T02:42:59;99862.25;;;15.81;94.97
11041;BME280;5573;49.592;8.662;2022-09-02T02:45:27;99885.03;;;15.96;94.61
11041;BME280;5573;49.592;8.662;2022-09-02T02:47:57;99878.00;;;15.88;94.50
11041;BME280;5573;49.592;8.662;2022-09-02T02:50:25;99876.38;;;15.91;93.61
11041;BME280;5573;49.592;8.662;2022-09-02T02:52:53;99880.31;;;15.93;93.12
11041;BME280;5573;49.592;8.662;2022-09-02T02:55:24;99877.59;;;15.90;93.65
11041;BME280;5573;49.592;8.662;2022-09-02T02:57:52;99882.78;;;15.88;92.69
11041;BME280;5573;49.592;8.662;2022-09-02T03:00:22;99880.78;;;15.88;93.80
11041;BME280;5573;49.592;8.662;2022-09-02T03:02:54;99873.63;;;15.87;93.17
11041;BME280;5573;49.592;8.662;2022-09-02T03:05:24;99869.69;;;15.88;93.57
11041;BME280;5573;49.592;8.662;2022-09-02T03:07:52;99872.50;;;15.84;91.71
11041;BME280;5573;49.592;8.662;2022-09-02T03:10:21;99873.22;;;15.89;91.42
11041;BME280;5573;49.592;8.662;2022-09-02T03:12:50;99864.94;;;15.85;92.54
11041;BME280;5573;49.592;8.662;2022-09-02T03:15:19;99872.81;;;15.90;93.07
11041;BME280;5573;49.592;8.662;2022-09-02T03:17:50;99873.19;;;15.92;90.54
11041;BME280;5573;49.592;8.662;2022-09-02T03:20:20;99851.53;;;15.83;90.45
11041;BME280;5573;49.592;8.662;2022-09-02T03:22:54;99865.97;;;15.98;90.55
11041;BME280;5573;49.592;8.662;2022-09-02T03:25:23;99824.34;;;15.68;90.91
11041;BME280;5573;49.592;8.662;2022-09-02T03:27:55;99865.69;;;15.89;91.33
11041;BME280;5573;49.592;8.662;2022-09-02T03:30:25;99831.16;;;15.63;90.80
11041;BME280;5573;49.592;8.662;2022-09-02T03:32:56;99871.59;;;15.91;89.34
11041;BME280;5573;49.592;8.662;2022-09-02T03:35:32;99865.38;;;15.83;91.52
11041;BME280;5573;49.592;8.662;2022-09-02T03:38:01;99862.19;;;15.85;89.80
11041;BME280;5573;49.592;8.662;2022-09-02T03:40:29;99860.06;;;15.96;88.31
11041;BME280;5573;49.592;8.662;2022-09-02T03:42:57;99860.06;;;15.96;88.54
11041;BME280;5573;49.592;8.662;2022-09-02T03:45:28;99860.50;;;15.91;88.57
11041;BME280;5573;49.592;8.662;2022-09-02T03:47:58;99859.69;;;15.94;88.17
11041;BME280;5573;49.592;8.662;2022-09-02T03:50:31;99860.84;;;15.97;88.36
11041;BME280;5573;49.592;8.662;2022-09-02T03:53:02;99855.78;;;15.92;87.80
11041;BME280;5573;49.592;8.662;2022-09-02T03:55:31;99859.63;;;15.98;87.06
11041;BME280;5573;49.592;8.662;2022-09-02T03:57:59;99856.91;;;15.94;87.78
11041;BME280;5573;49.592;8.662;2022-09-02T04:00:35;99854.97;;;15.91;86.87
11041;BME280;5573;49.592;8.662;2022-09-02T04:03:04;99858.09;;;15.93;88.01
11041;BME280;5573;49.592;8.662;2022-09-02T04:05:32;99866.53;;;15.86;86.85
11041;BME280;5573;49.592;8.662;2022-09-02T04:08:00;99850.69;;;15.87;86.99
11041;BME280;5573;49.592;8.662;2022-09-02T04:10:30;99852.25;;;15.88;86.11
11041;BME280;5573;49.592;8.662;2022-09-02T04:12:58;99855.44;;;15.86;87.34
11041;BME280;5573;49.592;8.662;2022-09-02T04:15:25;99853.94;;;15.81;85.69
11041;BME280;5573;49.592;8.662;2022-09-02T04:17:54;99846.41;;;15.78;86.42
11041;BME280;5573;49.592;8.662;2022-09-02T04:20:22;99852.31;;;15.84;85.96
11041;BME280;5573;49.592;8.662;2022-09-02T04:22:50;99850.81;;;15.76;86.43
11041;BME280;5573;49.592;8.662;2022-09-02T04:25:19;99853.19;;;15.77;86.04
11041;BME280;5573;49.592;8.662;2022-09-02T04:27:55;99860.69;;;15.77;85.95
11041;BME280;5573;49.592;8.662;2022-09-02T04:30:23;99865.44;;;15.80;84.73
11041;BME280;5573;49.592;8.662;2022-09-02T04:32:52;99860.66;;;15.80;84.82
11041;BME280;5573;49.592;8.662;2022-09-02T04:35:20;99855.09;;;15.80;83.66
11041;BME280;5573;49.592;8.662;2022-09-02T04:37:48;99856.72;;;15.78;84.81
11041;BME280;5573;49.592;8.662;2022-09-02T04:40:16;99859.88;;;15.80;84.18
11041;BME280;5573;49.592;8.662;2022-09-02T04:42:46;99858.41;;;15.72;84.94
11041;BME280;5573;49.592;8.662;2022-09-02T04:45:16;99855.22;;;15.70;85.19
11041;BME280;5573;49.592;8.662;2022-09-02T04:47:45;99863.16;;;15.68;85.21
11041;BME280;5573;49.592;8.662;2022-09-02T04:50:15;99860.03;;;15.65;84.26
11041;BME280;5573;49.592;8.662;2022-09-02T04:52:56;99861.66;;;15.63;83.99
11041;BME280;5573;49.592;8.662;2022-09-02T04:55:26;99860.03;;;15.65;82.87
11041;BME280;5573;49.592;8.662;2022-09-02T04:57:56;99863.16;;;15.68;82.29
11041;BME280;5573;49.592;8.662;2022-09-02T05:00:28;99872.69;;;15.67;83.83
11041;BME280;5573;49.592;8.662;2022-09-02T05:02:57;99861.97;;;15.69;83.00
11041;BME280;5573;49.592;8.662;2022-09-02T05:05:31;99876.63;;;15.69;84.24
11041;BME280;5573;49.592;8.662;2022-09-02T05:08:02;99868.72;;;15.68;83.30
11041;BME280;5573;49.592;8.662;2022-09-02T05:10:33;99865.53;;;15.69;81.64
11041;BME280;5573;49.592;8.662;2022-09-02T05:13:04;99873.88;;;15.65;83.86
11041;BME280;5573;49.592;8.662;2022-09-02T05:15:38;99864.78;;;15.65;82.87
11041;BME280;5573;49.592;8.662;2022-09-02T05:18:09;99866.34;;;15.66;82.98
11041;BME280;5573;49.592;8.662;2022-09-02T05:20:41;99872.25;;;15.68;82.86
11041;BME280;5573;49.592;8.662;2022-09-02T05:23:11;99812.16;;;15.27;83.50
11041;BME280;5573;49.592;8.662;2022-09-02T05:25:43;99871.91;;;15.66;83.33
11041;BME280;5573;49.592;8.662;2022-09-02T05:28:11;99875.84;;;15.69;82.05
11041;BME280;5573;49.592;8.662;2022-09-02T05:30:42;99872.69;;;15.67;82.59
11041;BME280;5573;49.592;8.662;2022-09-02T05:33:11;99875.84;;;15.69;82.48
11041;BME280;5573;49.592;8.662;2022-09-02T05:35:46;99886.13;;;15.72;82.81
11041;BME280;5573;49.592;8.662;2022-09-02T05:38:16;99879.78;;;15.71;82.96
11041;BME280;5573;49.592;8.662;2022-09-02T05:40:46;99884.13;;;15.72;82.21
11041;BME280;5573;49.592;8.662;2022-09-02T05:43:16;99871.78;;;15.77;82.48
11041;BME280;5573;49.592;8.662;2022-09-02T05:45:48;99883.69;;;15.77;83.75
11041;BME280;5573;49.592;8.662;2022-09-02T05:48:17;99870.63;;;15.74;82.58
11041;BME280;5573;49.592;8.662;2022-09-02T05:51:06;99871.75;;;15.80;81.81
11041;BME280;5573;49.592;8.662;2022-09-02T05:53:37;99873.22;;;15.89;82.43
11041;BME280;5573;49.592;8.662;2022-09-02T05:56:06;99878.38;;;15.90;80.17
11041;BME280;5573;49.592;8.662;2022-09-02T05:58:35;99875.50;;;15.97;81.31
11041;BME280;5573;49.592;8.662;2022-09-02T06:01:08;99879.28;;;16.11;79.61
11041;BME280;5573;49.592;8.662;2022-09-02T06:03:37;99881.53;;;16.19;80.30
11041;BME280;5573;49.592;8.662;2022-09-02T06:06:11;99882.31;;;16.20;79.90
11041;BME280;5573;49.592;8.662;2022-09-02T06:08:44;99880.94;;;16.32;76.61
11041;BME280;5573;49.592;8.662;2022-09-02T06:11:13;99880.81;;;16.42;76.49
11041;BME280;5573;49.592;8.662;2022-09-02T06:13:45;99860.69;;;16.35;76.57
11041;BME280;5573;49.592;8.662;2022-09-02T06:16:20;99887.59;;;16.65;75.82
11041;BME280;5573;49.592;8.662;2022-09-02T06:18:49;99885.50;;;16.73;77.14
11041;BME280;5573;49.592;8.662;2022-09-02T06:21:17;99877.47;;;16.78;73.56
11041;BME280;5573;49.592;8.662;2022-09-02T06:23:52;99875.69;;;16.92;72.04
11041;BME280;5573;49.592;8.662;2022-09-02T06:26:21;99878.13;;;17.10;71.35
11041;BME280;5573;49.592;8.662;2022-09-02T06:28:51;99875.53;;;17.22;69.23
11041;BME280;5573;49.592;8.662;2022-09-02T06:31:22;99883.94;;;17.39;70.21
11041;BME280;5573;49.592;8.662;2022-09-02T06:33:55;99881.81;;;17.46;67.98
11041;BME280;5573;49.592;8.662;2022-09-02T06:36:27;99805.88;;;17.10;67.36
11041;BME280;5573;49.592;8.662;2022-09-02T06:38:59;99883.41;;;17.67;65.85
11041;BME280;5573;49.592;8.662;2022-09-02T06:41:33;99855.06;;;17.73;65.65
11041;BME280;5573;49.592;8.662;2022-09-02T06:44:07;99876.56;;;17.92;64.59
11041;BME280;5573;49.592;8.662;2022-09-02T06:46:40;99878.47;;;18.15;64.05
11041;BME280;5573;49.592;8.662;2022-09-02T06:49:15;99870.34;;;18.21;61.52
11041;BME280;5573;49.592;8.662;2022-09-02T06:51:49;99863.72;;;18.15;61.33
11041;BME280;5573;49.592;8.662;2022-09-02T06:54:19;99870.72;;;18.39;61.16
11041;BME280;5573;49.592;8.662;2022-09-02T06:56:54;99884.81;;;18.48;61.01
11041;BME280;5573;49.592;8.662;2022-09-02T06:59:26;99871.34;;;18.63;60.22
11041;BME280;5573;49.592;8.662;2022-09-02T07:02:00;99877.88;;;18.73;60.57
11041;BME280;5573;49.592;8.662;2022-09-02T07:04:31;99873.09;;;18.90;60.96
11041;BME280;5573;49.592;8.662;2022-09-02T07:07:25;99864.19;;;19.12;58.98
11041;BME280;5573;49.592;8.662;2022-09-02T07:10:03;99860.63;;;19.11;59.05
11041;BME280;5573;49.592;8.662;2022-09-02T07:12:36;99870.56;;;19.12;59.36
11041;BME280;5573;49.592;8.662;2022-09-02T07:15:10;99869.94;;;19.21;58.83
11041;BME280;5573;49.592;8.662;2022-09-02T07:17:45;99866.72;;;19.35;57.67
11041;BME280;5573;49.592;8.662;2022-09-02T07:20:26;99869.13;;;19.49;58.38
11041;BME280;5573;49.592;8.662;2022-09-02T07:23:00;99865.91;;;19.51;56.80
11041;BME280;5573;49.592;8.662;2022-09-02T07:25:37;99869.63;;;19.61;56.23
11041;BME280;5573;49.592;8.662;2022-09-02T07:28:11;99871.16;;;19.78;56.09
11041;BME280;5573;49.592;8.662;2022-09-02T07:30:43;99870.16;;;19.98;55.16
11041;BME280;5573;49.592;8.662;2022-09-02T07:33:17;99875.22;;;20.16;55.01
11041;BME280;5573;49.592;8.662;2022-09-02T07:35:47;99879.03;;;20.35;54.50
11041;BME280;5573;49.592;8.662;2022-09-02T07:38:16;99867.72;;;20.38;53.49
11041;BME280;5573;49.592;8.662;2022-09-02T07:40:45;99863.91;;;20.45;54.15
11041;BME280;5573;49.592;8.662;2022-09-02T07:43:15;99864.91;;;20.38;52.81
11041;BME280;5573;49.592;8.662;2022-09-02T07:45:45;99861.16;;;20.58;52.91
11041;BME280;5573;49.592;8.662;2022-09-02T07:48:17;99867.06;;;20.73;52.20
11041;BME280;5573;49.592;8.662;2022-09-02T07:50:48;99859.75;;;20.88;52.15
11041;BME280;5573;49.592;8.662;2022-09-02T07:53:18;99867.53;;;20.93;51.71
11041;BME280;5573;49.592;8.662;2022-09-02T07:55:48;99853.78;;;20.99;50.93
11041;BME280;5573;49.592;8.662;2022-09-02T07:58:18;99859.00;;;21.09;51.50
11041;BME280;5573;49.592;8.662;2022-09-02T08:00:51;99860.84;;;21.25;50.58
11041;BME280;5573;49.592;8.662;2022-09-02T08:03:23;99846.94;;;21.35;50.23
11041;BME280;5573;49.592;8.662;2022-09-02T08:05:56;99858.09;;;21.47;49.32
11041;BME280;5573;49.592;8.662;2022-09-02T08:08:26;99854.31;;;21.63;49.27
11041;BME280;5573;49.592;8.662;2022-09-02T08:10:55;99854.03;;;21.70;48.18
11041;BME280;5573;49.592;8.662;2022-09-02T08:13:25;99859.31;;;21.68;49.12
11041;BME280;5573;49.592;8.662;2022-09-02T08:15:54;99853.06;;;21.86;48.65
11041;BME280;5573;49.592;8.662;2022-09-02T08:18:25;99857.28;;;21.91;48.07
11041;BME280;5573;49.592;8.662;2022-09-02T08:20:53;99860.53;;;21.89;47.10
11041;BME280;5573;49.592;8.662;2022-09-02T08:23:25;99859.06;;;22.07;47.27
11041;BME280;5573;49.592;8.662;2022-09-02T08:26:04;99861.94;;;21.94;46.25
11041;BME280;5573;49.592;8.662;2022-09-02T08:28:32;99856.22;;;21.98;46.44
11041;BME280;5573;49.592;8.662;2022-09-02T08:31:03;99863.84;;;21.97;45.72
11041;BME280;5573;49.592;8.662;2022-09-02T08:33:36;99867.00;;;22.08;45.56
11041;BME280;5573;49.592;8.662;2022-09-02T08:36:06;99855.13;;;22.26;45.33
11041;BME280;5573;49.592;8.662;2022-09-02T08:38:37;99852.13;;;22.61;44.98
11041;BME280;5573;49.592;8.662;2022-09-02T08:41:12;99844.97;;;22.69;45.66
11041;BME280;5573;49.592;8.662;2022-09-02T08:43:43;99841.56;;;22.84;45.07
11041;BME280;5573;49.592;8.662;2022-09-02T08:46:15;99851.06;;;22.96;44.34
11041;BME280;5573;49.592;8.662;2022-09-02T08:48:49;99848.00;;;23.03;44.28
11041;BME280;5573;49.592;8.662;2022-09-02T08:51:20;99847.41;;;23.17;44.04
11041;BME280;5573;49.592;8.662;2022-09-02T08:53:58;99843.66;;;23.11;42.86
11041;BME280;5573;49.592;8.662;2022-09-02T08:56:31;99848.63;;;23.16;42.62
11041;BME280;5573;49.592;8.662;2022-09-02T08:59:01;99853.31;;;23.10;43.11
11041;BME280;5573;49.592;8.662;2022-09-02T09:01:38;99842.38;;;23.30;43.47
11041;BME280;5573;49.592;8.662;2022-09-02T09:04:17;99839.75;;;23.18;41.39
11041;BME280;5573;49.592;8.662;2022-09-02T09:06:59;99842.38;;;23.40;41.55
11041;BME280;5573;49.592;8.662;2022-09-02T09:09:40;99837.38;;;23.44;41.99
11041;BME280;5573;49.592;8.662;2022-09-02T09:12:16;99842.03;;;23.56;41.08
11041;BME280;5573;49.592;8.662;2022-09-02T09:14:49;99835.47;;;23.68;39.94
11041;BME280;5573;49.592;8.662;2022-09-02T09:17:27;99844.69;;;23.60;39.94
11041;BME280;5573;49.592;8.662;2022-09-02T09:20:08;99830.78;;;23.74;40.23
11041;BME280;5573;49.592;8.662;2022-09-02T09:22:39;99833.56;;;23.84;39.25
11041;BME280;5573;49.592;8.662;2022-09-02T09:25:11;99822.84;;;23.64;38.79
11041;BME280;5573;49.592;8.662;2022-09-02T09:27:43;99829.88;;;23.50;39.22
11041;BME280;5573;49.592;8.662;2022-09-02T09:30:14;99830.97;;;23.62;39.55
11041;BME280;5573;49.592;8.662;2022-09-02T09:32:45;99831.75;;;23.44;38.64
11041;BME280;5573;49.592;8.662;2022-09-02T09:35:17;99824.78;;;23.21;38.47
11041;BME280;5573;49.592;8.662;2022-09-02T09:37:46;99828.66;;;23.42;39.10
11041;BME280;5573;49.592;8.662;2022-09-02T09:40:29;99817.03;;;23.67;38.28
11041;BME280;5573;49.592;8.662;2022-09-02T09:43:11;99814.69;;;23.84;37.82
11041;BME280;5573;49.592;8.662;2022-09-02T09:45:44;99831.38;;;23.97;37.67
11041;BME280;5573;49.592;8.662;2022-09-02T09:48:20;99816.31;;;24.09;37.51
11041;BME280;5573;49.592;8.662;2022-09-02T09:51:15;99811.56;;;24.25;36.64
11041;BME280;5573;49.592;8.662;2022-09-02T09:53:44;99807.19;;;24.24;37.09
11041;BME280;5573;49.592;8.662;2022-09-02T09:56:29;99790.16;;;24.27;37.61
11041;BME280;5573;49.592;8.662;2022-09-02T09:59:08;99802.63;;;24.35;36.06
11041;BME280;5573;49.592;8.662;2022-09-02T10:01:57;99802.09;;;24.13;36.18
11041;BME280;5573;49.592;8.662;2022-09-02T10:04:28;99811.09;;;23.93;36.41
11041;BME280;5573;49.592;8.662;2022-09-02T10:07:33;99803.84;;;24.10;36.38
11041;BME280;5573;49.592;8.662;2022-09-02T10:10:14;99802.19;;;24.28;36.55
11041;BME280;5573;49.592;8.662;2022-09-02T10:12:44;99792.31;;;24.32;35.80
11041;BME280;5573;49.592;8.662;2022-09-02T10:15:22;99780.44;;;24.62;35.45
11041;BME280;5573;49.592;8.662;2022-09-02T10:17:57;99787.13;;;24.64;35.57
11041;BME280;5573;49.592;8.662;2022-09-02T10:20:39;99795.16;;;24.81;35.44
11041;BME280;5573;49.592;8.662;2022-09-02T10:23:46;99796.47;;;24.94;34.29
11041;BME280;5573;49.592;8.662;2022-09-02T10:26:24;99792.00;;;25.03;35.23
11041;BME280;5573;49.592;8.662;2022-09-02T10:32:02;99793.25;;;25.02;35.21
11041;BME280;5573;49.592;8.662;2022-09-02T10:34:41;99784.25;;;25.12;34.30
11041;BME280;5573;49.592;8.662;2022-09-02T10:37:18;99783.09;;;25.19;35.14
11041;BME280;5573;49.592;8.662;2022-09-02T10:40:07;99734.88;;;24.72;34.94
11041;BME280;5573;49.592;8.662;2022-09-02T10:42:43;99784.84;;;25.16;33.49
11041;BME280;5573;49.592;8.662;2022-09-02T10:45:22;99782.28;;;25.28;33.85
11041;BME280;5573;49.592;8.662;2022-09-02T10:48:04;99778.56;;;24.83;33.86
11041;BME280;5573;49.592;8.662;2022-09-02T10:50:38;99775.09;;;24.88;34.90
11041;BME280;5573;49.592;8.662;2022-09-02T10:53:23;99764.88;;;24.75;34.72
11041;BME280;5573;49.592;8.662;2022-09-02T10:55:59;99767.88;;;24.72;35.36
11041;BME280;5573;49.592;8.662;2022-09-02T10:58:38;99772.41;;;25.08;35.58
11041;BME280;5573;49.592;8.662;2022-09-02T11:01:17;99768.38;;;25.24;33.60
11041;BME280;5573;49.592;8.662;2022-09-02T11:03:57;99763.34;;;25.28;33.22
11041;BME280;5573;49.592;8.662;2022-09-02T11:06:37;99747.88;;;25.09;33.67
11041;BME280;5573;49.592;8.662;2022-09-02T11:09:32;99747.31;;;25.34;32.79
11041;BME280;5573;49.592;8.662;2022-09-02T11:12:10;99751.19;;;25.22;34.23
11041;BME280;5573;49.592;8.662;2022-09-02T11:14:52;99745.56;;;25.22;33.53
11041;BME280;5573;49.592;8.662;2022-09-02T11:17:30;99725.09;;;25.37;32.86
11041;BME280;5573;49.592;8.662;2022-09-02T11:20:09;99727.88;;;25.66;32.00
11041;BME280;5573;49.592;8.662;2022-09-02T11:22:55;99725.41;;;25.74;33.46
11041;BME280;5573;49.592;8.662;2022-09-02T11:25:31;99737.50;;;25.60;32.47
11041;BME280;5573;49.592;8.662;2022-09-02T11:28:14;99725.28;;;25.48;33.08
11041;BME280;5573;49.592;8.662;2022-09-02T11:30:52;99729.44;;;25.52;33.38
11041;BME280;5573;49.592;8.662;2022-09-02T11:33:28;99718.72;;;25.71;31.09
11041;BME280;5573;49.592;8.662;2022-09-02T11:36:00;99720.91;;;25.62;33.02
11041;BME280;5573;49.592;8.662;2022-09-02T11:38:33;99715.13;;;25.71;32.36
11041;BME280;5573;49.592;8.662;2022-09-02T11:41:22;99698.75;;;26.05;32.13
11041;BME280;5573;49.592;8.662;2022-09-02T11:44:18;99703.53;;;25.99;31.52
11041;BME280;5573;49.592;8.662;2022-09-02T11:47:06;99712.56;;;25.88;32.32
11041;BME280;5573;49.592;8.662;2022-09-02T11:49:55;99699.31;;;26.09;32.29
11041;BME280;5573;49.592;8.662;2022-09-02T11:52:45;99713.28;;;25.83;33.52
11041;BME280;5573;49.592;8.662;2022-09-02T11:55:21;99705.97;;;25.91;32.82
11041;BME280;5573;49.592;8.662;2022-09-02T11:57:53;99697.44;;;25.85;30.82
11041;BME280;5573;49.592;8.662;2022-09-02T12:00:29;99701.28;;;25.88;32.06
11041;BME280;5573;49.592;8.662;2022-09-02T12:03:11;99693.31;;;26.22;32.31
11041;BME280;5573;49.592;8.662;2022-09-02T12:06:06;99690.44;;;25.95;32.45
11041;BME280;5573;49.592;8.662;2022-09-02T12:09:08;99691.78;;;26.21;32.50
11041;BME280;5573;49.592;8.662;2022-09-02T12:11:48;99698.25;;;26.47;31.26
11041;BME280;5573;49.592;8.662;2022-09-02T12:17:43;99691.63;;;26.09;31.82
11041;BME280;5573;49.592;8.662;2022-09-02T12:26:22;99683.19;;;26.30;31.59
11041;BME280;5573;49.592;8.662;2022-09-02T12:29:10;99667.31;;;26.32;30.39
11041;BME280;5573;49.592;8.662;2022-09-02T12:31:43;99675.50;;;26.30;31.76
11041;BME280;5573;49.592;8.662;2022-09-02T12:34:51;99667.94;;;26.63;30.85
11041;BME280;5573;49.592;8.662;2022-09-02T12:37:48;99670.13;;;26.73;30.61
11041;BME280;5573;49.592;8.662;2022-09-02T12:40:29;99661.00;;;26.84;29.34
11041;BME280;5573;49.592;8.662;2022-09-02T12:43:01;99650.38;;;26.53;30.42
11041;BME280;5573;49.592;8.662;2022-09-02T12:45:41;99651.84;;;26.69;31.39
11041;BME280;5573;49.592;8.662;2022-09-02T12:48:17;99649.47;;;26.62;30.85
11041;BME280;5573;49.592;8.662;2022-09-02T12:51:06;99643.81;;;26.62;31.63
11041;BME280;5573;49.592;8.662;2022-09-02T12:53:39;99643.69;;;27.03;30.39
11041;BME280;5573;49.592;8.662;2022-09-02T12:56:17;99652.72;;;27.07;30.31
11041;BME280;5573;49.592;8.662;2022-09-02T12:58:49;99650.19;;;26.83;30.89
11041;BME280;5573;49.592;8.662;2022-09-02T13:01:27;99630.22;;;26.60;30.05
11041;BME280;5573;49.592;8.662;2022-09-02T13:04:22;99629.78;;;26.67;30.57
11041;BME280;5573;49.592;8.662;2022-09-02T13:13:18;99620.56;;;26.46;30.41
11041;BME280;5573;49.592;8.662;2022-09-02T13:16:11;99627.13;;;26.84;29.62
11041;BME280;5573;49.592;8.662;2022-09-02T13:19:10;99626.72;;;26.97;29.68
11041;BME280;5573;49.592;8.662;2022-09-02T13:31:09;99601.53;;;26.93;28.62
11041;BME280;5573;49.592;8.662;2022-09-02T13:33:40;99593.41;;;26.75;29.26
11041;BME280;5573;49.592;8.662;2022-09-02T13:36:21;99595.75;;;26.76;31.24
11041;BME280;5573;49.592;8.662;2022-09-02T13:38:54;99593.34;;;26.95;30.73
11041;BME280;5573;49.592;8.662;2022-09-02T13:41:29;99574.69;;;27.04;28.80
11041;BME280;5573;49.592;8.662;2022-09-02T13:44:08;99582.81;;;27.22;28.41
11041;BME280;5573;49.592;8.662;2022-09-02T13:46:43;99569.66;;;27.19;29.14
11041;BME280;5573;49.592;8.662;2022-09-02T13:49:21;99577.09;;;27.16;29.29
11041;BME280;5573;49.592;8.662;2022-09-02T13:51:55;99576.34;;;27.22;29.73
11041;BME280;5573;49.592;8.662;2022-09-02T13:54:32;99570.63;;;27.10;29.33
11041;BME280;5573;49.592;8.662;2022-09-02T13:57:05;99574.97;;;27.06;29.00
11041;BME280;5573;49.592;8.662;2022-09-02T13:59:39;99564.41;;;27.32;29.01
11041;BME280;5573;49.592;8.662;2022-09-02T14:02:22;99565.72;;;27.43;28.76
11041;BME280;5573;49.592;8.662;2022-09-02T14:04:55;99552.13;;;27.47;28.21
11041;BME280;5573;49.592;8.662;2022-09-02T14:07:30;99559.75;;;27.29;29.12
11041;BME280;5573;49.592;8.662;2022-09-02T14:10:05;99556.47;;;27.42;28.46
11041;BME280;5573;49.592;8.662;2022-09-02T14:12:35;99554.31;;;27.26;28.39
11041;BME280;5573;49.592;8.662;2022-09-02T14:15:08;99544.84;;;27.29;29.37
11041;BME280;5573;49.592;8.662;2022-09-02T14:17:37;99548.56;;;27.14;28.48